createdAt,value
2018-04-28T00:00:08.439Z,13.37
2018-04-28T00:02:36.824Z,14.27
2018-04-28T00:05:05.205Z,15.50
2018-04-28T00:07:33.133Z,15.93
2018-04-28T00:10:01.274Z,18.00
2018-04-28T00:12:29.646Z,17.87
2018-04-28T00:14:57.787Z,18.87
2018-04-28T00:17:25.687Z,19.50
2018-04-28T00:19:56.438Z,21.63
2018-04-28T00:22:27.156Z,23.43
2018-04-28T00:24:59.480Z,23.77
2018-04-28T00:27:34.748Z,25.83
2018-04-28T00:30:12.190Z,26.73
2018-04-28T00:32:40.330Z,26.93
2018-04-28T00:35:09.175Z,29.00
2018-04-28T00:37:54.075Z,27.90
2018-04-28T00:40:45.057Z,27.43
2018-04-28T00:43:19.558Z,29.10
2018-04-28T00:48:47.521Z,28.63
2018-04-28T00:51:25.325Z,28.20
2018-04-28T00:54:17.783Z,27.40
2018-04-28T00:56:52.173Z,27.97
2018-04-28T00:59:23.416Z,28.50
2018-04-28T01:01:53.056Z,27.87
2018-04-28T01:04:26.913Z,27.97
2018-04-28T01:06:55.334Z,28.03
2018-04-28T01:09:23.946Z,27.57
2018-04-28T01:11:51.850Z,27.37
2018-04-28T01:14:20.419Z,27.80
2018-04-28T01:16:52.819Z,28.00
2018-04-28T01:19:26.425Z,27.67
2018-04-28T01:21:54.368Z,26.40
2018-04-28T01:24:33.097Z,27.93
2018-04-28T01:27:07.543Z,28.87
2018-04-28T01:29:36.235Z,28.10
2018-04-28T01:32:12.750Z,28.93
2018-04-28T01:38:00.776Z,29.97
2018-04-28T01:40:28.750Z,28.53
2018-04-28T01:43:03.269Z,28.60
2018-04-28T01:45:42.875Z,28.07
2018-04-28T01:51:11.810Z,28.03
2018-04-28T01:57:09.916Z,27.63
2018-04-28T02:03:06.623Z,29.63
2018-04-28T02:05:41.222Z,28.27
2018-04-28T02:08:24.845Z,28.77
2018-04-28T02:10:58.375Z,28.63
2018-04-28T02:13:34.959Z,27.97
2018-04-28T02:16:02.863Z,27.30
2018-04-28T02:18:35.478Z,27.73
2018-04-28T02:24:38.380Z,28.73
2018-04-28T02:27:15.504Z,27.73
2018-04-28T02:32:57.439Z,27.80
2018-04-28T02:35:32.935Z,27.30
2018-04-28T02:38:04.842Z,25.70
2018-04-28T02:40:40.916Z,26.10
2018-04-28T02:43:09.611Z,27.20
2018-04-28T02:48:58.629Z,26.10
2018-04-28T02:51:35.085Z,25.60
2018-04-28T02:57:17.760Z,25.93
2018-04-28T02:59:47.493Z,25.57
2018-04-28T03:05:25.988Z,24.20
2018-04-28T03:08:02.547Z,25.30
2018-04-28T03:13:33.550Z,25.40
2018-04-28T03:16:02.102Z,25.93
2018-04-28T03:18:31.733Z,25.77
2018-04-28T03:20:59.679Z,24.70
2018-04-28T03:23:31.245Z,24.43
2018-04-28T03:25:59.994Z,25.53
2018-04-28T03:28:30.730Z,24.87
2018-04-28T03:30:59.398Z,23.77
2018-04-28T03:36:28.228Z,23.20
2018-04-28T03:39:02.074Z,24.40
2018-04-28T03:41:31.535Z,22.60
2018-04-28T03:47:38.408Z,21.97
2018-04-28T03:50:38.796Z,21.63
2018-04-28T03:53:07.479Z,21.77
2018-04-28T03:55:37.036Z,21.17
2018-04-28T03:58:16.681Z,20.10
2018-04-28T04:00:56.296Z,21.30
2018-04-28T04:03:24.898Z,20.20
2018-04-28T04:08:57.707Z,19.00
2018-04-28T04:11:37.351Z,19.20
2018-04-28T04:17:23.856Z,19.80
2018-04-28T04:23:15.179Z,19.23
2018-04-28T04:28:47.803Z,17.70
2018-04-28T04:31:26.308Z,18.00
2018-04-28T04:34:04.071Z,17.63
2018-04-28T04:36:35.649Z,17.20
2018-04-28T04:39:10.073Z,17.50
2018-04-28T04:44:50.059Z,16.60
2018-04-28T04:50:29.210Z,14.47
2018-04-28T04:53:14.158Z,14.77
2018-04-28T04:55:48.831Z,14.87
2018-04-28T04:58:23.269Z,16.17
2018-04-28T05:04:17.211Z,16.57
2018-04-28T05:07:07.461Z,17.20
2018-04-28T05:12:36.184Z,17.10
2018-04-28T05:15:10.831Z,15.40
2018-04-28T05:17:40.304Z,16.17
2018-04-28T05:20:19.929Z,16.10
2018-04-28T05:23:10.511Z,16.40
2018-04-28T05:28:58.930Z,16.23
2018-04-28T05:34:36.038Z,17.47
2018-04-28T05:37:15.522Z,17.30
2018-04-28T05:46:23.509Z,13.57
2018-04-28T05:52:07.959Z,13.43
2018-04-28T05:54:50.717Z,11.73
2018-04-28T05:57:31.342Z,12.37
2018-04-28T06:00:13.158Z,11.43
2018-04-28T06:02:50.865Z,11.90
2018-04-28T06:05:26.623Z,11.70
2018-04-28T06:14:49.989Z,12.43
2018-04-28T06:17:23.359Z,12.30
2018-04-28T06:20:05.890Z,13.60
2018-04-28T06:22:34.407Z,13.70
2018-04-28T06:25:02.792Z,14.10
2018-04-28T06:27:31.290Z,13.50
2018-04-28T06:29:59.985Z,12.33
2018-04-28T06:32:28.437Z,11.80
2018-04-28T06:34:56.817Z,13.57
2018-04-28T06:37:25.190Z,12.37
2018-04-28T06:39:53.336Z,13.23
2018-04-28T06:42:21.748Z,12.37
2018-04-28T06:44:50.167Z,12.10
2018-04-28T06:47:18.553Z,12.93
2018-04-28T06:49:47.052Z,13.07
2018-04-28T06:52:15.440Z,12.87
2018-04-28T06:54:43.819Z,12.53
2018-04-28T06:57:12.195Z,13.73
2018-04-28T06:59:40.576Z,14.30
2018-04-28T07:02:09.522Z,13.80
2018-04-28T07:04:37.926Z,13.10
2018-04-28T07:07:06.002Z,12.83
2018-04-28T07:09:34.397Z,12.17
2018-04-28T07:12:02.779Z,12.47
2018-04-28T07:14:31.152Z,12.87
2018-04-28T07:16:59.358Z,12.40
2018-04-28T07:19:27.255Z,12.53
2018-04-28T07:21:55.646Z,13.40
2018-04-28T07:24:24.032Z,13.47
2018-04-28T07:26:54.428Z,15.10
2018-04-28T07:29:22.850Z,13.73
2018-04-28T07:31:51.240Z,21.07
2018-04-28T07:34:19.721Z,13.60
2018-04-28T07:36:48.103Z,16.80
2018-04-28T07:39:16.479Z,14.80
2018-04-28T07:41:44.954Z,14.77
2018-04-28T07:44:14.707Z,13.80
2018-04-28T07:46:43.107Z,14.93
2018-04-28T07:49:11.482Z,11.87
2018-04-28T07:51:39.874Z,14.07
2018-04-28T07:54:08.389Z,15.07
2018-04-28T07:56:36.991Z,15.90
2018-04-28T07:59:05.370Z,15.07
2018-04-28T08:01:33.770Z,16.70
2018-04-28T08:04:02.181Z,22.83
2018-04-28T08:06:30.566Z,17.17
2018-04-28T08:08:58.703Z,17.27
2018-04-28T08:11:27.119Z,16.13
2018-04-28T08:13:55.498Z,17.20
2018-04-28T08:16:23.915Z,15.53
2018-04-28T08:18:52.295Z,23.10
2018-04-28T08:21:20.671Z,15.33
2018-04-28T08:23:49.085Z,17.77
2018-04-28T08:26:17.006Z,16.20
2018-04-28T08:28:45.492Z,19.10
2018-04-28T08:31:16.692Z,16.67
2018-04-28T08:33:45.678Z,15.13
2018-04-28T08:36:13.821Z,16.77
2018-04-28T08:38:42.452Z,16.70
2018-04-28T08:41:18.062Z,16.43
2018-04-28T08:43:46.479Z,22.10
2018-04-28T08:46:14.855Z,18.20
2018-04-28T08:48:43.026Z,16.80
2018-04-28T08:51:11.408Z,23.87
2018-04-28T08:53:39.794Z,16.83
2018-04-28T08:56:08.189Z,16.93
2018-04-28T08:58:36.575Z,17.73
2018-04-28T09:01:04.476Z,18.30
2018-04-28T09:03:32.909Z,18.27
2018-04-28T09:06:01.279Z,18.20
2018-04-28T09:08:29.827Z,17.90
2018-04-28T09:10:58.326Z,17.70
2018-04-28T09:13:26.717Z,17.73
2018-04-28T09:15:55.098Z,16.77
2018-04-28T09:18:23.479Z,17.63
2018-04-28T09:20:51.904Z,19.53
2018-04-28T09:23:20.274Z,21.63
2018-04-28T09:25:48.699Z,18.70
2018-04-28T09:28:17.071Z,20.30
2018-04-28T09:30:45.496Z,21.10
2018-04-28T09:33:13.679Z,18.33
2018-04-28T09:35:42.048Z,18.30
2018-04-28T09:38:10.428Z,16.67
2018-04-28T09:40:38.815Z,17.97
2018-04-28T09:43:07.191Z,18.70
2018-04-28T09:45:35.613Z,18.00
2018-04-28T09:48:03.996Z,17.93
2018-04-28T09:50:32.427Z,16.50
2018-04-28T09:53:00.853Z,23.33
2018-04-28T09:55:29.232Z,19.13
2018-04-28T09:58:05.912Z,18.83
2018-04-28T10:03:45.546Z,18.40
2018-04-28T10:06:13.947Z,16.93
2018-04-28T10:08:42.407Z,16.87
2018-04-28T10:11:10.801Z,17.50
2018-04-28T10:13:39.169Z,17.87
2018-04-28T10:16:07.556Z,17.47
2018-04-28T10:18:35.931Z,19.80
2018-04-28T10:21:04.680Z,17.87
2018-04-28T10:23:33.079Z,18.27
2018-04-28T10:26:01.518Z,17.53
2018-04-28T10:28:30.012Z,17.37
2018-04-28T10:30:58.550Z,17.27
2018-04-28T10:33:27.053Z,16.23
2018-04-28T10:35:55.897Z,18.27
2018-04-28T10:38:24.310Z,17.80
2018-04-28T10:40:52.696Z,17.43
2018-04-28T10:43:21.067Z,18.80
2018-04-28T10:45:49.470Z,19.50
2018-04-28T10:48:17.866Z,22.03
2018-04-28T10:50:47.142Z,15.63
2018-04-28T10:53:15.559Z,17.43
2018-04-28T10:55:43.940Z,17.70
2018-04-28T10:58:12.366Z,17.67
2018-04-28T11:00:40.915Z,15.37
2018-04-28T11:03:09.282Z,14.53
2018-04-28T11:05:37.661Z,14.13
2018-04-28T11:08:06.271Z,14.40
2018-04-28T11:10:34.682Z,12.63
2018-04-28T11:13:03.069Z,13.63
2018-04-28T11:15:31.508Z,12.93
2018-04-28T11:17:59.923Z,13.13
2018-04-28T11:20:28.314Z,15.37
2018-04-28T11:22:56.731Z,16.97
2018-04-28T11:25:25.246Z,17.87
2018-04-28T11:27:53.414Z,16.57
2018-04-28T11:30:21.825Z,16.83
2018-04-28T11:32:50.261Z,26.00
2018-04-28T11:35:18.813Z,14.13
2018-04-28T11:37:47.253Z,15.10
2018-04-28T11:40:15.465Z,13.97
2018-04-28T11:42:44.556Z,15.97
2018-04-28T11:45:12.947Z,15.33
2018-04-28T11:47:54.803Z,15.97
2018-04-28T11:50:23.225Z,15.60
2018-04-28T11:52:51.631Z,17.87
2018-04-28T11:55:20.016Z,13.93
2018-04-28T11:57:48.391Z,14.23
2018-04-28T12:00:16.770Z,12.40
2018-04-28T12:02:45.198Z,13.57
2018-04-28T12:05:13.672Z,13.70
2018-04-28T12:07:42.168Z,13.60
2018-04-28T12:10:10.564Z,13.00
2018-04-28T12:12:39.123Z,15.13
2018-04-28T12:15:07.630Z,13.80
2018-04-28T12:17:36.007Z,13.63
2018-04-28T12:20:04.139Z,15.20
2018-04-28T12:22:32.553Z,16.23
2018-04-28T12:25:00.967Z,13.33
2018-04-28T12:27:29.363Z,12.67
2018-04-28T12:29:57.752Z,13.93
2018-04-28T12:32:26.298Z,12.33
2018-04-28T12:34:54.699Z,13.47
2018-04-28T12:37:25.671Z,13.10
2018-04-28T12:39:54.088Z,12.80
2018-04-28T12:42:22.463Z,13.47
2018-04-28T12:44:51.708Z,13.00
2018-04-28T12:47:20.099Z,12.87
2018-04-28T12:49:48.471Z,13.00
2018-04-28T12:52:16.875Z,11.00
2018-04-28T12:54:45.270Z,11.73
2018-04-28T12:57:13.650Z,13.07
2018-04-28T12:59:42.083Z,11.57
2018-04-28T13:02:10.528Z,11.27
2018-04-28T13:04:38.955Z,11.53
2018-04-28T13:07:07.488Z,11.63
2018-04-28T13:09:35.634Z,12.27
2018-04-28T13:12:04.019Z,10.83
2018-04-28T13:14:33.131Z,11.47
2018-04-28T13:17:01.507Z,11.40
2018-04-28T13:19:29.939Z,10.40
2018-04-28T13:21:58.336Z,10.73
2018-04-28T13:24:26.729Z,12.03
2018-04-28T13:26:55.177Z,9.40
2018-04-28T13:29:23.705Z,8.77
2018-04-28T13:31:52.073Z,9.93
2018-04-28T13:34:20.453Z,10.13
2018-04-28T13:36:48.860Z,9.30
2018-04-28T13:39:17.330Z,9.40
2018-04-28T13:41:45.913Z,9.10
2018-04-28T13:44:14.290Z,9.17
2018-04-28T13:46:42.666Z,8.97
2018-04-28T13:49:11.045Z,10.50
2018-04-28T13:51:39.479Z,10.93
2018-04-28T13:54:07.866Z,11.40
2018-04-28T13:56:36.281Z,11.03
2018-04-28T13:59:04.854Z,12.20
2018-04-28T14:01:33.272Z,12.50
2018-04-28T14:04:01.663Z,11.20
2018-04-28T14:06:29.879Z,11.10
2018-04-28T14:08:58.049Z,10.97
2018-04-28T14:11:26.442Z,11.53
2018-04-28T14:13:54.809Z,11.07
2018-04-28T14:16:23.239Z,13.27
2018-04-28T14:18:51.667Z,11.20
2018-04-28T14:21:20.071Z,11.13
2018-04-28T14:23:48.221Z,10.27
2018-04-28T14:26:16.598Z,11.27
2018-04-28T14:28:45.036Z,10.73
2018-04-28T14:31:13.424Z,11.80
2018-04-28T14:33:41.802Z,10.73
2018-04-28T14:36:10.220Z,9.47
2018-04-28T14:38:38.642Z,10.10
2018-04-28T14:41:07.011Z,9.67
2018-04-28T14:43:35.923Z,10.37
2018-04-28T14:46:04.304Z,10.33
2018-04-28T14:48:32.882Z,10.77
2018-04-28T14:51:01.280Z,11.13
2018-04-28T14:53:29.669Z,10.83
2018-04-28T14:55:58.033Z,10.60
2018-04-28T14:58:26.410Z,10.30
2018-04-28T15:00:54.827Z,10.80
2018-04-28T15:03:23.373Z,10.63
2018-04-28T15:05:51.744Z,10.60
2018-04-28T15:08:20.124Z,10.57
2018-04-28T15:10:48.534Z,11.77
2018-04-28T15:13:16.963Z,13.47
2018-04-28T15:15:46.637Z,14.90
2018-04-28T15:18:15.015Z,16.13
2018-04-28T15:20:43.619Z,16.27
2018-04-28T15:23:11.994Z,20.83
2018-04-28T15:25:40.875Z,17.20
2018-04-28T15:28:09.288Z,19.00
2018-04-28T15:30:37.665Z,16.97
2018-04-28T15:33:06.033Z,17.33
2018-04-28T15:35:34.476Z,18.30
2018-04-28T15:38:02.615Z,16.70
2018-04-28T15:40:31.011Z,17.33
2018-04-28T15:42:59.485Z,16.20
2018-04-28T15:45:27.852Z,17.63
2018-04-28T15:47:56.276Z,17.73
2018-04-28T15:50:24.726Z,17.77
2018-04-28T15:52:53.174Z,17.13
2018-04-28T15:55:21.628Z,16.47
2018-04-28T15:57:54.478Z,18.10
2018-04-28T16:00:22.902Z,18.33
2018-04-28T16:02:51.327Z,18.23
2018-04-28T16:05:20.734Z,18.93
2018-04-28T16:07:49.111Z,15.97
2018-04-28T16:10:17.491Z,16.43
2018-04-28T16:12:45.866Z,15.63
2018-04-28T16:15:14.263Z,15.87
2018-04-28T16:17:46.876Z,16.37
2018-04-28T16:20:15.252Z,14.60
2018-04-28T16:22:43.392Z,17.47
2018-04-28T16:25:11.778Z,15.47
2018-04-28T16:27:40.145Z,14.83
2018-04-28T16:30:08.581Z,15.30
2018-04-28T16:32:36.958Z,14.33
2018-04-28T16:35:05.376Z,15.13
2018-04-28T16:37:36.067Z,14.60
2018-04-28T16:40:04.457Z,16.00
2018-04-28T16:42:32.862Z,15.53
2018-04-28T16:45:01.246Z,14.23
2018-04-28T16:47:29.684Z,14.63
2018-04-28T16:49:58.167Z,14.43
2018-04-28T16:52:26.560Z,13.90
2018-04-28T16:54:55.009Z,14.80
2018-04-28T16:57:23.398Z,14.67
2018-04-28T16:59:51.837Z,13.40
2018-04-28T17:02:20.224Z,14.50
2018-04-28T17:04:48.644Z,13.50
2018-04-28T17:07:17.026Z,14.50
2018-04-28T17:09:45.420Z,14.63
2018-04-28T17:12:14.333Z,14.47
2018-04-28T17:14:43.431Z,14.10
2018-04-28T17:17:11.900Z,13.47
2018-04-28T17:19:40.405Z,13.33
2018-04-28T17:22:10.229Z,14.33
2018-04-28T17:24:42.243Z,13.43
2018-04-28T17:27:10.999Z,13.93
2018-04-28T17:29:39.410Z,14.53
2018-04-28T17:32:08.626Z,13.10
2018-04-28T17:34:37.021Z,14.83
2018-04-28T17:37:05.486Z,14.43
2018-04-28T17:39:34.038Z,14.43
2018-04-28T17:42:02.484Z,12.83
2018-04-28T17:44:30.865Z,14.37
2018-04-28T17:46:59.420Z,14.03
2018-04-28T17:49:27.824Z,14.80
2018-04-28T17:51:56.259Z,13.57
2018-04-28T17:54:24.749Z,14.07
2018-04-28T17:56:53.122Z,13.67
2018-04-28T17:59:21.690Z,13.60
2018-04-28T18:01:50.232Z,13.43
2018-04-28T18:04:19.550Z,15.00
2018-04-28T18:06:47.931Z,15.53
2018-04-28T18:09:16.931Z,13.93
2018-04-28T18:11:45.358Z,15.03
2018-04-28T18:14:13.734Z,13.77
2018-04-28T18:16:42.123Z,14.37
2018-04-28T18:19:10.503Z,14.73
2018-04-28T18:21:38.881Z,15.37
2018-04-28T18:24:10.289Z,15.03
2018-04-28T18:26:39.751Z,14.53
2018-04-28T18:29:08.137Z,15.10
2018-04-28T18:31:36.523Z,15.27
2018-04-28T18:34:04.670Z,15.03
2018-04-28T18:36:33.076Z,14.97
2018-04-28T18:39:01.457Z,15.13
2018-04-28T18:41:29.844Z,15.70
2018-04-28T18:43:59.071Z,14.70
2018-04-28T18:46:27.543Z,14.47
2018-04-28T18:48:56.038Z,14.27
2018-04-28T18:51:24.462Z,14.57
2018-04-28T18:53:52.835Z,14.93
2018-04-28T18:56:21.249Z,17.00
2018-04-28T18:58:49.619Z,20.10
2018-04-28T19:01:17.998Z,15.53
2018-04-28T19:03:46.383Z,14.87
2018-04-28T19:06:14.788Z,13.83
2018-04-28T19:08:42.985Z,14.00
2018-04-28T19:11:11.140Z,14.23
2018-04-28T19:13:39.589Z,13.33
2018-04-28T19:16:07.971Z,12.97
2018-04-28T19:18:36.353Z,15.00
2018-04-28T19:21:04.723Z,13.40
2018-04-28T19:23:33.104Z,13.27
2018-04-28T19:26:01.504Z,12.77
2018-04-28T19:28:40.322Z,13.60
2018-04-28T19:31:09.206Z,12.67
2018-04-28T19:33:37.799Z,13.10
2018-04-28T19:36:06.248Z,13.53
2018-04-28T19:38:34.635Z,13.33
2018-04-28T19:41:02.778Z,13.23
2018-04-28T19:43:31.207Z,13.50
2018-04-28T19:45:59.611Z,14.10
2018-04-28T19:48:28.001Z,13.53
2018-04-28T19:50:56.158Z,13.07
2018-04-28T19:53:24.542Z,13.20
2018-04-28T19:55:52.709Z,13.73
2018-04-28T19:58:21.140Z,12.93
2018-04-28T20:00:49.517Z,13.27
2018-04-28T20:03:17.924Z,13.90
2018-04-28T20:05:46.330Z,12.77
2018-04-28T20:08:14.732Z,14.27
2018-04-28T20:10:43.107Z,13.83
2018-04-28T20:13:11.503Z,13.47
2018-04-28T20:15:39.899Z,13.17
2018-04-28T20:18:08.283Z,14.47
2018-04-28T20:20:36.659Z,15.87
2018-04-28T20:23:16.243Z,14.30
2018-04-28T20:25:44.616Z,14.70
2018-04-28T20:28:13.025Z,15.17
2018-04-28T20:30:41.663Z,15.27
2018-04-28T20:33:10.132Z,15.23
2018-04-28T20:35:38.615Z,15.20
2018-04-28T20:38:07.020Z,15.93
2018-04-28T20:40:35.493Z,15.13
2018-04-28T20:43:03.869Z,14.80
2018-04-28T20:45:32.306Z,14.17
2018-04-28T20:48:00.694Z,14.67
2018-04-28T20:50:29.089Z,14.87
2018-04-28T20:52:57.529Z,15.70
2018-04-28T20:55:25.915Z,15.73
2018-04-28T20:57:54.302Z,15.03
2018-04-28T21:00:22.720Z,15.17
2018-04-28T21:02:51.098Z,15.40
2018-04-28T21:05:19.529Z,15.10
2018-04-28T21:07:47.965Z,14.97
2018-04-28T21:10:17.293Z,15.17
2018-04-28T21:12:45.674Z,15.53
2018-04-28T21:15:14.091Z,14.87
2018-04-28T21:17:42.662Z,15.10
2018-04-28T21:20:11.061Z,16.10
2018-04-28T21:22:39.437Z,14.77
2018-04-28T21:25:07.805Z,15.10
2018-04-28T21:27:36.182Z,14.70
2018-04-28T21:30:05.805Z,15.07
2018-04-28T21:32:34.532Z,15.77
2018-04-28T21:35:02.909Z,16.50
2018-04-28T21:37:31.350Z,15.97
2018-04-28T21:39:59.728Z,15.67
2018-04-28T21:42:28.095Z,16.27
2018-04-28T21:44:56.481Z,15.20
2018-04-28T21:47:24.894Z,15.43
2018-04-28T21:49:53.275Z,14.53
2018-04-28T21:52:22.431Z,15.73
2018-04-28T21:54:50.853Z,14.63
2018-04-28T21:57:19.235Z,14.53
2018-04-28T21:59:47.620Z,14.40
2018-04-28T22:02:15.990Z,13.77
2018-04-28T22:04:44.424Z,13.67
2018-04-28T22:07:13.077Z,13.27
2018-04-28T22:09:41.839Z,14.77
2018-04-28T22:12:10.256Z,14.30
2018-04-28T22:14:38.631Z,14.77
2018-04-28T22:17:07.016Z,13.57
2018-04-28T22:19:35.386Z,13.63
2018-04-28T22:22:03.795Z,14.07
2018-04-28T22:24:32.168Z,13.57
2018-04-28T22:27:00.551Z,13.83
2018-04-28T22:29:28.925Z,13.70
2018-04-28T22:31:57.298Z,13.93
2018-04-28T22:34:25.716Z,14.63
2018-04-28T22:36:53.935Z,14.57
2018-04-28T22:39:22.311Z,14.90
2018-04-28T22:41:50.688Z,14.30
2018-04-28T22:44:19.075Z,15.40
2018-04-28T22:46:47.434Z,14.30
2018-04-28T22:49:15.991Z,15.27
2018-04-28T22:51:44.354Z,15.90
2018-04-28T22:54:12.784Z,15.00
2018-04-28T22:56:41.198Z,15.97
2018-04-28T22:59:09.600Z,16.67
2018-04-28T23:01:37.975Z,16.57
2018-04-28T23:04:06.346Z,17.60
2018-04-28T23:06:34.718Z,18.43
2018-04-28T23:09:03.151Z,18.43
2018-04-28T23:11:31.336Z,19.40
2018-04-28T23:13:59.750Z,20.03
2018-04-28T23:16:28.158Z,19.20
2018-04-28T23:18:56.531Z,20.20
2018-04-28T23:21:25.110Z,20.70
2018-04-28T23:23:53.250Z,19.47
2018-04-28T23:26:21.618Z,20.07
2018-04-28T23:28:49.986Z,20.03
2018-04-28T23:31:18.357Z,21.00
2018-04-28T23:33:46.783Z,20.60
2018-04-28T23:36:15.202Z,19.77
2018-04-28T23:38:43.576Z,20.10
2018-04-28T23:41:11.949Z,21.50
2018-04-28T23:43:40.319Z,19.70
2018-04-28T23:46:08.731Z,20.57
2018-04-28T23:48:37.110Z,21.37
2018-04-28T23:51:05.527Z,20.57
2018-04-28T23:53:33.908Z,20.40
2018-04-28T23:56:02.320Z,22.00
2018-04-28T23:58:30.749Z,21.97
